createdAt,value
2022-11-13T00:03:39.466Z,48.60
2022-11-13T00:08:59.865Z,47.20
2022-11-13T00:14:22.839Z,48.60
2022-11-13T00:19:43.358Z,46.70
2022-11-13T00:25:04.188Z,46.10
2022-11-13T00:30:24.593Z,47.40
2022-11-13T00:35:45.407Z,48.20
2022-11-13T00:41:06.191Z,45.20
2022-11-13T00:46:26.822Z,45.90
2022-11-13T00:51:49.110Z,45.90
2022-11-13T00:57:09.688Z,45.40
2022-11-13T01:02:30.055Z,46.20
2022-11-13T01:07:50.543Z,46.80
2022-11-13T01:13:11.364Z,43.90
2022-11-13T01:18:31.881Z,44.20
2022-11-13T01:23:52.495Z,43.10
2022-11-13T01:29:13.624Z,39.60
2022-11-13T01:34:34.375Z,37.50
2022-11-13T01:39:54.754Z,40.50
2022-11-13T01:45:53.263Z,40.00
2022-11-13T01:51:24.431Z,43.00
2022-11-13T01:56:45.177Z,42.90
2022-11-13T02:02:05.720Z,44.30
2022-11-13T02:07:26.448Z,43.30
2022-11-13T02:12:51.546Z,44.10
2022-11-13T02:18:13.868Z,43.30
2022-11-13T02:24:12.631Z,42.50
2022-11-13T02:29:33.005Z,41.90
2022-11-13T02:35:07.524Z,41.90
2022-11-13T02:40:28.350Z,38.70
2022-11-13T02:45:49.159Z,39.00
2022-11-13T02:51:09.988Z,39.00
2022-11-13T02:56:30.908Z,40.30
2022-11-13T03:01:51.561Z,37.20
2022-11-13T03:07:13.473Z,37.80
2022-11-13T03:12:34.398Z,39.30
2022-11-13T03:17:54.818Z,40.80
2022-11-13T03:23:15.324Z,37.60
2022-11-13T03:28:36.175Z,50.70
2022-11-13T03:33:56.676Z,46.90
2022-11-13T03:39:17.280Z,45.10
2022-11-13T03:44:38.057Z,43.60
2022-11-13T03:49:58.509Z,55.40
2022-11-13T03:55:19.233Z,63.60
2022-11-13T04:00:41.483Z,46.50
2022-11-13T04:06:02.201Z,47.20
2022-11-13T04:11:22.929Z,45.10
2022-11-13T04:16:43.336Z,42.40
2022-11-13T04:22:03.844Z,46.60
2022-11-13T04:27:24.076Z,44.70
2022-11-13T04:32:44.708Z,46.10
2022-11-13T04:38:05.182Z,48.10
2022-11-13T04:43:25.522Z,45.50
2022-11-13T04:48:46.108Z,45.40
2022-11-13T04:54:06.626Z,44.70
2022-11-13T04:59:27.543Z,44.20
2022-11-13T05:04:48.268Z,46.10
2022-11-13T05:10:09.801Z,45.80
2022-11-13T05:15:30.421Z,47.70
2022-11-13T05:20:51.138Z,44.00
2022-11-13T05:26:13.516Z,44.10
2022-11-13T05:31:34.216Z,41.70
2022-11-13T05:36:54.936Z,44.30
2022-11-13T05:42:15.676Z,44.10
2022-11-13T05:47:36.371Z,56.00
2022-11-13T05:52:56.784Z,58.80
2022-11-13T05:58:17.300Z,55.40
2022-11-13T06:03:39.012Z,57.10
2022-11-13T06:09:02.426Z,53.10
2022-11-13T06:14:23.351Z,51.30
2022-11-13T06:19:45.015Z,48.20
2022-11-13T06:25:05.954Z,50.10
2022-11-13T06:30:26.525Z,43.10
2022-11-13T06:35:47.349Z,40.40
2022-11-13T06:41:09.918Z,36.90
2022-11-13T06:46:31.563Z,42.70
2022-11-13T06:52:01.908Z,39.20
2022-11-13T06:57:22.821Z,44.20
2022-11-13T07:02:43.311Z,43.90
2022-11-13T07:08:03.853Z,46.60
2022-11-13T07:13:26.206Z,44.20
2022-11-13T07:18:51.909Z,44.50
2022-11-13T07:24:16.755Z,53.00
2022-11-13T07:29:39.325Z,52.10
2022-11-13T07:34:59.836Z,39.50
2022-11-13T07:40:20.247Z,42.40
2022-11-13T07:45:40.559Z,42.40
2022-11-13T07:51:02.619Z,39.20
2022-11-13T07:56:25.504Z,36.60
2022-11-13T08:01:46.093Z,41.10
2022-11-13T08:07:06.716Z,33.90
2022-11-13T08:12:27.228Z,39.30
2022-11-13T08:17:54.641Z,38.10
2022-11-13T08:23:15.217Z,32.40
2022-11-13T08:28:36.859Z,42.90
2022-11-13T08:33:57.895Z,33.20
2022-11-13T08:39:18.558Z,33.50
2022-11-13T08:44:49.382Z,34.80
2022-11-13T08:50:09.974Z,33.20
2022-11-13T08:55:30.383Z,30.30
2022-11-13T09:00:51.087Z,35.60
2022-11-13T09:06:11.931Z,30.40
2022-11-13T09:11:32.649Z,32.90
2022-11-13T09:16:53.241Z,37.20
2022-11-13T09:22:13.571Z,36.40
2022-11-13T09:27:34.367Z,34.00
2022-11-13T09:32:57.397Z,49.80
2022-11-13T09:38:17.982Z,32.10
2022-11-13T09:44:26.718Z,35.50
2022-11-13T09:49:58.813Z,35.10
2022-11-13T09:55:24.019Z,36.80
2022-11-13T10:00:45.232Z,32.90
2022-11-13T10:06:43.791Z,30.60
2022-11-13T10:18:12.626Z,29.40
2022-11-13T10:23:35.911Z,31.10
2022-11-13T10:29:17.727Z,34.40
2022-11-13T10:34:38.945Z,33.80
2022-11-13T10:39:59.254Z,31.50
2022-11-13T10:45:22.759Z,30.90
2022-11-13T10:50:43.251Z,30.90
2022-11-13T10:56:14.003Z,28.60
2022-11-13T11:01:34.943Z,31.50
2022-11-13T11:07:19.190Z,31.40
2022-11-13T11:12:36.541Z,31.70
2022-11-13T11:17:59.518Z,32.40
2022-11-13T11:23:25.798Z,29.90
2022-11-13T11:28:59.488Z,33.00
2022-11-13T11:34:34.142Z,29.60
2022-11-13T11:39:54.669Z,30.30
2022-11-13T11:45:26.731Z,28.30
2022-11-13T11:51:05.770Z,29.30
2022-11-13T11:56:50.832Z,31.90
2022-11-13T12:02:32.779Z,30.80
2022-11-13T12:08:02.110Z,28.50
2022-11-13T12:13:30.247Z,31.30
2022-11-13T12:24:31.708Z,28.30
2022-11-13T12:30:15.774Z,31.10
2022-11-13T12:35:38.258Z,30.20
2022-11-13T12:41:07.434Z,32.20
2022-11-13T12:46:37.174Z,29.70
2022-11-13T12:52:00.268Z,30.70
2022-11-13T12:57:30.089Z,29.50
2022-11-13T13:03:19.581Z,32.80
2022-11-13T13:08:58.323Z,31.60
2022-11-13T13:15:00.718Z,27.70
2022-11-13T13:20:20.954Z,28.40
2022-11-13T13:25:41.316Z,27.80
2022-11-13T13:31:16.810Z,24.80
2022-11-13T13:36:51.884Z,25.80
2022-11-13T13:42:30.705Z,31.60
2022-11-13T13:47:53.657Z,34.80
2022-11-13T13:53:36.227Z,41.90
2022-11-13T13:58:56.921Z,65.40
2022-11-13T14:04:20.959Z,132.70
2022-11-13T14:09:41.538Z,156.80
2022-11-13T14:15:05.502Z,150.40
2022-11-13T14:20:26.247Z,156.20
2022-11-13T14:25:48.404Z,177.30
2022-11-13T14:31:11.602Z,204.90
2022-11-13T14:36:34.140Z,331.10
2022-11-13T14:41:59.057Z,467.60
2022-11-13T14:47:31.891Z,99.60
2022-11-13T14:53:17.159Z,209.40
2022-11-13T14:58:47.200Z,72.40
2022-11-13T15:04:07.837Z,64.20
2022-11-13T15:09:30.766Z,74.10
2022-11-13T15:14:51.544Z,73.60
2022-11-13T15:20:18.143Z,148.20
2022-11-13T15:25:38.880Z,63.50
2022-11-13T15:30:59.599Z,69.60
2022-11-13T15:36:20.021Z,78.30
2022-11-13T15:41:41.180Z,179.00
2022-11-13T15:47:01.657Z,351.50
2022-11-13T15:52:24.319Z,168.30
2022-11-13T15:57:45.036Z,105.50
2022-11-13T16:03:11.727Z,75.40
2022-11-13T16:08:32.417Z,108.80
2022-11-13T16:13:53.338Z,116.90
2022-11-13T16:19:21.681Z,89.30
2022-11-13T16:24:44.197Z,312.10
2022-11-13T16:30:07.069Z,78.90
2022-11-13T16:35:27.785Z,72.40
2022-11-13T16:40:48.295Z,247.90
2022-11-13T16:46:20.902Z,79.30
2022-11-13T16:51:41.291Z,61.30
2022-11-13T16:57:01.625Z,59.00
2022-11-13T17:02:22.442Z,68.20
2022-11-13T17:07:42.954Z,59.90
2022-11-13T17:13:03.166Z,58.30
2022-11-13T17:18:23.576Z,62.10
2022-11-13T17:23:44.188Z,61.70
2022-11-13T17:29:05.880Z,51.10
2022-11-13T17:34:26.753Z,60.10
2022-11-13T17:39:46.964Z,77.30
2022-11-13T17:45:08.271Z,71.80
2022-11-13T17:50:29.214Z,74.80
2022-11-13T17:55:58.979Z,54.90
2022-11-13T18:01:22.100Z,63.00
2022-11-13T18:06:42.890Z,61.40
2022-11-13T18:12:03.361Z,50.80
2022-11-13T18:17:24.592Z,55.10
2022-11-13T18:22:45.106Z,53.20
2022-11-13T18:28:05.512Z,59.20
2022-11-13T18:33:26.616Z,54.50
2022-11-13T18:38:47.568Z,54.30
2022-11-13T18:44:08.498Z,50.00
2022-11-13T18:49:29.519Z,48.20
2022-11-13T18:54:50.412Z,52.40
2022-11-13T19:00:11.218Z,47.50
2022-11-13T19:05:31.575Z,51.20
2022-11-13T19:10:52.192Z,49.40
2022-11-13T19:16:19.599Z,49.30
2022-11-13T19:21:40.541Z,44.80
2022-11-13T19:27:01.113Z,44.80
2022-11-13T19:32:21.415Z,50.10
2022-11-13T19:37:42.038Z,191.80
2022-11-13T19:43:02.726Z,227.50
2022-11-13T19:48:23.369Z,310.00
2022-11-13T19:53:59.008Z,65.40
2022-11-13T19:59:19.449Z,116.40
2022-11-13T20:04:40.182Z,69.70
2022-11-13T20:10:00.888Z,57.80
2022-11-13T20:15:21.196Z,197.50
2022-11-13T20:20:44.423Z,272.60
2022-11-13T20:26:08.067Z,90.90
2022-11-13T20:31:28.741Z,64.20
2022-11-13T20:36:49.399Z,51.80
2022-11-13T20:42:09.812Z,51.40
2022-11-13T20:47:30.834Z,59.70
2022-11-13T20:52:51.558Z,48.00
2022-11-13T20:58:12.479Z,61.90
2022-11-13T21:03:38.601Z,67.00
2022-11-13T21:09:02.007Z,65.20
2022-11-13T21:14:22.620Z,53.20
2022-11-13T21:19:43.427Z,53.80
2022-11-13T21:25:04.882Z,50.30
2022-11-13T21:30:25.906Z,42.80
2022-11-13T21:35:46.723Z,42.00
2022-11-13T21:41:21.405Z,71.90
2022-11-13T21:46:42.300Z,39.90
2022-11-13T21:52:02.947Z,67.60
2022-11-13T21:57:24.413Z,85.00
2022-11-13T22:02:44.968Z,44.60
2022-11-13T22:08:05.684Z,123.90
2022-11-13T22:13:30.797Z,45.20
2022-11-13T22:18:55.929Z,40.00
2022-11-13T22:24:17.055Z,39.90
2022-11-13T22:29:37.781Z,42.70
2022-11-13T22:34:58.347Z,44.30
2022-11-13T22:40:19.010Z,44.60
2022-11-13T22:45:39.422Z,47.10
2022-11-13T22:51:11.230Z,51.00
2022-11-13T22:56:33.669Z,41.50
2022-11-13T23:01:54.073Z,41.00
2022-11-13T23:07:14.838Z,42.00
2022-11-13T23:12:35.201Z,44.80
2022-11-13T23:17:55.619Z,39.70
2022-11-13T23:23:17.458Z,38.80
2022-11-13T23:28:38.791Z,37.50
2022-11-13T23:33:59.183Z,37.50
2022-11-13T23:39:19.722Z,43.50
2022-11-13T23:44:40.127Z,35.10
2022-11-13T23:50:01.201Z,30.30
2022-11-13T23:55:22.798Z,40.40
